createdAt,value
2018-07-29T00:00:59.722Z,21.17
2018-07-29T00:01:59.692Z,21.12
2018-07-29T00:02:59.662Z,21.14
2018-07-29T00:03:59.623Z,21.12
2018-07-29T00:04:59.593Z,21.07
2018-07-29T00:05:59.562Z,21.11
2018-07-29T00:06:59.531Z,21.03
2018-07-29T00:07:59.504Z,21.02
2018-07-29T00:08:59.473Z,20.97
2018-07-29T00:09:59.438Z,21.00
2018-07-29T00:10:59.401Z,20.95
2018-07-29T00:11:59.398Z,20.88
2018-07-29T00:12:59.343Z,20.88
2018-07-29T00:13:59.312Z,20.82
2018-07-29T00:14:59.283Z,20.90
2018-07-29T00:15:59.250Z,20.81
2018-07-29T00:16:59.216Z,20.92
2018-07-29T00:17:59.187Z,20.87
2018-07-29T00:18:59.156Z,20.95
2018-07-29T00:19:59.124Z,20.97
2018-07-29T00:20:59.092Z,20.99
2018-07-29T00:21:59.056Z,20.96
2018-07-29T00:22:59.027Z,20.96
2018-07-29T00:23:58.998Z,20.96
2018-07-29T00:24:58.966Z,20.96
2018-07-29T00:25:58.942Z,21.00
2018-07-29T00:26:58.905Z,20.96
2018-07-29T00:27:58.879Z,20.97
2018-07-29T00:28:58.842Z,21.03
2018-07-29T00:29:58.806Z,20.96
2018-07-29T00:30:58.776Z,20.85
2018-07-29T00:31:58.745Z,20.87
2018-07-29T00:32:58.716Z,20.88
2018-07-29T00:33:58.688Z,20.85
2018-07-29T00:34:58.651Z,20.87
2018-07-29T00:35:58.619Z,20.82
2018-07-29T00:36:58.591Z,20.87
2018-07-29T00:37:58.566Z,20.82
2018-07-29T00:38:58.528Z,20.92
2018-07-29T00:39:58.494Z,20.93
2018-07-29T00:40:58.461Z,20.85
2018-07-29T00:41:58.434Z,20.85
2018-07-29T00:42:58.398Z,20.90
2018-07-29T00:43:58.380Z,20.88
2018-07-29T00:44:58.340Z,20.96
2018-07-29T00:45:58.338Z,20.93
2018-07-29T00:46:58.284Z,20.88
2018-07-29T00:47:58.249Z,20.87
2018-07-29T00:48:58.215Z,20.82
2018-07-29T00:49:58.180Z,20.88
2018-07-29T00:50:58.156Z,20.95
2018-07-29T00:51:58.120Z,20.90
2018-07-29T00:52:58.089Z,20.81
2018-07-29T00:53:58.049Z,20.78
2018-07-29T00:54:58.023Z,20.84
2018-07-29T00:55:57.989Z,20.75
2018-07-29T00:56:57.964Z,20.72
2018-07-29T00:57:57.929Z,20.69
2018-07-29T00:58:57.900Z,20.74
2018-07-29T00:59:57.867Z,20.66
2018-07-29T01:00:57.828Z,20.55
2018-07-29T01:01:57.799Z,20.56
2018-07-29T01:02:57.772Z,20.55
2018-07-29T01:03:57.733Z,20.50
2018-07-29T01:04:57.711Z,20.51
2018-07-29T01:05:57.674Z,20.60
2018-07-29T01:06:57.642Z,20.62
2018-07-29T01:07:57.609Z,20.60
2018-07-29T01:08:57.588Z,20.60
2018-07-29T01:09:57.553Z,20.55
2018-07-29T01:10:57.523Z,20.62
2018-07-29T01:11:57.492Z,20.48
2018-07-29T01:12:57.461Z,20.41
2018-07-29T01:13:57.421Z,20.40
2018-07-29T01:14:57.388Z,20.44
2018-07-29T01:15:57.358Z,20.18
2018-07-29T01:16:57.331Z,20.02
2018-07-29T01:17:57.294Z,20.11
2018-07-29T01:18:57.263Z,20.18
2018-07-29T01:19:57.245Z,20.10
2018-07-29T01:20:57.196Z,20.09
2018-07-29T01:21:57.166Z,20.02
2018-07-29T01:22:57.139Z,20.04
2018-07-29T01:23:57.107Z,20.03
2018-07-29T01:24:57.069Z,19.96
2018-07-29T01:25:57.040Z,19.99
2018-07-29T01:26:57.007Z,20.02
2018-07-29T01:27:56.977Z,19.99
2018-07-29T01:28:56.949Z,20.04
2018-07-29T01:29:56.915Z,20.13
2018-07-29T01:30:56.882Z,20.06
2018-07-29T01:31:56.857Z,20.10
2018-07-29T01:32:56.829Z,20.16
2018-07-29T01:33:56.787Z,20.04
2018-07-29T01:34:56.754Z,20.06
2018-07-29T01:35:56.725Z,20.03
2018-07-29T01:36:56.695Z,20.10
2018-07-29T01:37:56.660Z,20.09
2018-07-29T01:38:56.630Z,20.02
2018-07-29T01:39:56.592Z,19.99
2018-07-29T01:40:56.567Z,19.95
2018-07-29T01:41:56.533Z,19.76
2018-07-29T01:42:56.500Z,19.81
2018-07-29T01:43:56.471Z,19.82
2018-07-29T01:44:56.435Z,19.94
2018-07-29T01:45:56.405Z,19.91
2018-07-29T01:46:56.371Z,19.94
2018-07-29T01:47:56.340Z,20.02
2018-07-29T01:48:56.312Z,20.06
2018-07-29T01:49:56.286Z,19.94
2018-07-29T01:50:56.246Z,19.94
2018-07-29T01:51:56.216Z,19.91
2018-07-29T01:52:56.178Z,19.82
2018-07-29T01:53:56.163Z,19.89
2018-07-29T01:54:56.119Z,19.89
2018-07-29T01:55:56.109Z,19.95
2018-07-29T01:56:56.053Z,19.96
2018-07-29T01:57:56.019Z,20.00
2018-07-29T01:58:55.990Z,19.99
2018-07-29T01:59:55.955Z,20.00
2018-07-29T02:00:55.930Z,19.96
2018-07-29T02:01:55.894Z,20.09
2018-07-29T02:02:55.866Z,20.11
2018-07-29T02:03:55.845Z,20.06
2018-07-29T02:04:55.794Z,20.06
2018-07-29T02:05:55.771Z,20.04
2018-07-29T02:06:55.735Z,20.10
2018-07-29T02:07:55.703Z,20.13
2018-07-29T02:08:55.674Z,20.21
2018-07-29T02:09:55.638Z,20.10
2018-07-29T02:10:55.613Z,20.13
2018-07-29T02:11:55.572Z,20.16
2018-07-29T02:12:55.543Z,20.10
2018-07-29T02:13:55.509Z,20.04
2018-07-29T02:14:55.478Z,20.10
2018-07-29T02:15:55.448Z,20.07
2018-07-29T02:16:55.411Z,20.11
2018-07-29T02:17:55.379Z,20.07
2018-07-29T02:18:55.347Z,20.07
2018-07-29T02:19:55.317Z,20.00
2018-07-29T02:20:55.291Z,20.02
2018-07-29T02:21:55.253Z,20.06
2018-07-29T02:22:55.221Z,20.00
2018-07-29T02:23:55.192Z,20.07
2018-07-29T02:24:55.152Z,20.11
2018-07-29T02:25:55.122Z,20.07
2018-07-29T02:26:55.093Z,20.07
2018-07-29T02:27:55.067Z,20.04
2018-07-29T02:28:55.024Z,20.02
2018-07-29T02:29:54.994Z,20.00
2018-07-29T02:30:54.962Z,19.95
2018-07-29T02:31:54.931Z,20.00
2018-07-29T02:32:54.904Z,20.03
2018-07-29T02:33:54.867Z,19.99
2018-07-29T02:34:54.837Z,19.96
2018-07-29T02:35:54.807Z,19.96
2018-07-29T02:36:54.768Z,19.96
2018-07-29T02:37:54.738Z,19.89
2018-07-29T02:38:54.706Z,19.82
2018-07-29T02:39:54.673Z,19.91
2018-07-29T02:40:54.658Z,19.84
2018-07-29T02:41:54.610Z,19.84
2018-07-29T02:42:54.591Z,19.79
2018-07-29T02:43:54.551Z,19.74
2018-07-29T02:44:54.523Z,19.85
2018-07-29T02:45:54.486Z,19.85
2018-07-29T02:46:54.452Z,19.82
2018-07-29T02:47:54.421Z,19.82
2018-07-29T02:48:54.386Z,19.76
2018-07-29T02:49:54.357Z,19.74
2018-07-29T02:50:54.320Z,19.69
2018-07-29T02:51:54.285Z,19.71
2018-07-29T02:52:54.260Z,19.69
2018-07-29T02:53:54.224Z,19.77
2018-07-29T02:54:54.192Z,19.59
2018-07-29T02:55:54.161Z,19.63
2018-07-29T02:56:54.125Z,19.63
2018-07-29T02:57:54.092Z,19.56
2018-07-29T02:58:54.062Z,19.62
2018-07-29T02:59:54.032Z,19.58
2018-07-29T03:00:54.001Z,19.55
2018-07-29T03:01:53.963Z,19.51
2018-07-29T03:02:53.931Z,19.51
2018-07-29T03:03:53.897Z,19.45
2018-07-29T03:04:53.870Z,19.51
2018-07-29T03:05:53.840Z,19.51
2018-07-29T03:06:53.803Z,19.47
2018-07-29T03:07:53.775Z,19.51
2018-07-29T03:08:53.748Z,19.52
2018-07-29T03:09:53.706Z,19.45
2018-07-29T03:10:53.671Z,19.37
2018-07-29T03:11:53.640Z,19.44
2018-07-29T03:12:53.612Z,19.37
2018-07-29T03:13:53.576Z,19.41
2018-07-29T03:14:53.543Z,19.45
2018-07-29T03:15:53.508Z,19.49
2018-07-29T03:16:53.484Z,19.51
2018-07-29T03:17:53.486Z,19.49
2018-07-29T03:18:53.414Z,19.45
2018-07-29T03:19:53.384Z,19.45
2018-07-29T03:20:53.346Z,19.47
2018-07-29T03:21:53.314Z,19.48
2018-07-29T03:22:53.282Z,19.51
2018-07-29T03:23:53.254Z,19.59
2018-07-29T03:24:53.224Z,19.55
2018-07-29T03:25:53.187Z,19.44
2018-07-29T03:26:53.154Z,19.55
2018-07-29T03:27:53.123Z,19.47
2018-07-29T03:28:53.087Z,19.47
2018-07-29T03:29:53.056Z,19.48
2018-07-29T03:30:53.025Z,19.40
2018-07-29T03:31:52.994Z,19.51
2018-07-29T03:32:52.958Z,19.51
2018-07-29T03:33:52.923Z,19.45
2018-07-29T03:34:52.890Z,19.31
2018-07-29T03:35:52.861Z,19.37
2018-07-29T03:36:52.832Z,19.37
2018-07-29T03:37:52.796Z,19.29
2018-07-29T03:38:52.764Z,19.41
2018-07-29T03:39:52.732Z,19.30
2018-07-29T03:40:52.696Z,19.31
2018-07-29T03:41:52.664Z,19.31
2018-07-29T03:42:52.631Z,19.31
2018-07-29T03:43:52.596Z,19.33
2018-07-29T03:44:52.570Z,19.33
2018-07-29T03:45:52.536Z,19.18
2018-07-29T03:46:52.513Z,19.16
2018-07-29T03:47:52.465Z,19.14
2018-07-29T03:48:52.441Z,19.15
2018-07-29T03:49:52.404Z,19.12
2018-07-29T03:50:52.374Z,19.08
2018-07-29T04:08:12.992Z,19.09
2018-07-29T04:09:12.926Z,19.09
2018-07-29T04:10:12.894Z,18.95
2018-07-29T04:11:12.846Z,18.98
2018-07-29T04:12:12.813Z,18.96
2018-07-29T04:13:12.776Z,18.83
2018-07-29T04:14:12.743Z,18.60
2018-07-29T04:15:12.707Z,18.56
2018-07-29T04:16:12.672Z,18.50
2018-07-29T04:17:12.634Z,18.52
2018-07-29T04:18:12.594Z,18.66
2018-07-29T04:19:12.563Z,18.56
2018-07-29T04:20:12.530Z,18.56
2018-07-29T04:21:12.499Z,18.56
2018-07-29T04:22:12.465Z,18.62
2018-07-29T04:23:12.431Z,18.68
2018-07-29T04:24:12.396Z,18.66
2018-07-29T04:25:12.358Z,18.63
2018-07-29T04:26:12.335Z,18.63
2018-07-29T04:27:12.296Z,18.58
2018-07-29T04:28:12.261Z,18.59
2018-07-29T04:29:12.225Z,18.58
2018-07-29T04:30:12.189Z,18.66
2018-07-29T04:31:12.157Z,18.70
2018-07-29T04:32:12.124Z,18.70
2018-07-29T04:33:12.092Z,18.71
2018-07-29T04:34:12.061Z,18.75
2018-07-29T04:35:12.027Z,18.70
2018-07-29T04:36:11.996Z,18.78
2018-07-29T04:37:11.957Z,18.80
2018-07-29T04:38:11.932Z,18.78
2018-07-29T04:39:11.891Z,18.84
2018-07-29T04:40:11.860Z,18.80
2018-07-29T04:41:11.829Z,18.80
2018-07-29T04:42:11.796Z,18.75
2018-07-29T04:43:11.763Z,18.80
2018-07-29T04:44:11.727Z,18.74
2018-07-29T04:45:11.696Z,18.88
2018-07-29T04:46:11.665Z,18.77
2018-07-29T04:47:11.634Z,18.77
2018-07-29T04:48:11.600Z,18.71
2018-07-29T04:49:11.567Z,18.83
2018-07-29T04:50:11.532Z,18.77
2018-07-29T04:51:11.498Z,18.80
2018-07-29T04:52:11.469Z,18.83
2018-07-29T04:53:11.437Z,18.80
2018-07-29T04:54:11.403Z,18.90
2018-07-29T04:55:11.370Z,18.88
2018-07-29T04:56:11.337Z,18.84
2018-07-29T04:57:11.302Z,18.88
2018-07-29T04:58:11.261Z,19.02
2018-07-29T04:59:11.238Z,19.08
2018-07-29T05:00:11.200Z,19.09
2018-07-29T05:01:11.163Z,19.18
2018-07-29T05:02:11.130Z,19.16
2018-07-29T05:03:11.096Z,19.12
2018-07-29T05:04:11.066Z,19.22
2018-07-29T05:05:11.034Z,19.12
2018-07-29T05:06:11.003Z,19.18
2018-07-29T05:07:10.978Z,19.29
2018-07-29T05:08:10.937Z,19.30
2018-07-29T05:09:10.902Z,19.30
2018-07-29T05:10:10.869Z,19.27
2018-07-29T05:11:10.837Z,19.15
2018-07-29T05:12:10.805Z,19.09
2018-07-29T05:13:10.773Z,19.18
2018-07-29T05:14:10.741Z,19.22
2018-07-29T05:15:10.703Z,19.15
2018-07-29T05:16:10.674Z,19.09
2018-07-29T05:17:10.642Z,19.02
2018-07-29T05:18:10.615Z,19.02
2018-07-29T05:19:10.583Z,19.04
2018-07-29T05:20:10.545Z,19.08
2018-07-29T05:21:10.511Z,19.15
2018-07-29T05:22:10.475Z,19.15
2018-07-29T05:23:10.445Z,19.31
2018-07-29T05:24:10.411Z,19.24
2018-07-29T05:25:10.394Z,19.33
2018-07-29T05:26:10.349Z,19.21
2018-07-29T05:27:10.322Z,19.33
2018-07-29T05:28:10.291Z,19.36
2018-07-29T05:29:10.249Z,19.48
2018-07-29T05:30:10.263Z,19.47
2018-07-29T05:31:10.188Z,19.41
2018-07-29T05:32:10.158Z,19.51
2018-07-29T05:33:10.121Z,19.47
2018-07-29T05:34:10.091Z,19.47
2018-07-29T05:35:10.077Z,19.49
2018-07-29T05:36:10.020Z,19.45
2018-07-29T05:37:10.000Z,19.47
2018-07-29T05:38:09.959Z,19.51
2018-07-29T05:39:09.929Z,19.66
2018-07-29T05:40:09.897Z,19.59
2018-07-29T05:41:09.859Z,19.59
2018-07-29T05:42:09.829Z,19.69
2018-07-29T05:43:09.795Z,19.74
2018-07-29T05:44:09.763Z,19.71
2018-07-29T05:45:09.777Z,19.55
2018-07-29T05:46:09.704Z,19.67
2018-07-29T05:47:09.666Z,19.64
2018-07-29T05:48:09.632Z,19.70
2018-07-29T05:49:09.605Z,19.73
2018-07-29T05:50:09.570Z,19.70
2018-07-29T05:51:09.538Z,19.77
2018-07-29T05:52:09.510Z,19.79
2018-07-29T05:53:09.474Z,19.88
2018-07-29T05:54:09.440Z,19.77
2018-07-29T05:55:09.410Z,19.86
2018-07-29T05:56:09.419Z,19.91
2018-07-29T05:57:09.347Z,19.89
2018-07-29T05:58:09.314Z,19.95
2018-07-29T05:59:09.281Z,19.99
2018-07-29T06:00:09.252Z,20.07
2018-07-29T06:01:09.212Z,20.11
2018-07-29T06:02:09.183Z,20.11
2018-07-29T06:03:09.152Z,20.09
2018-07-29T06:04:09.162Z,20.16
2018-07-29T06:05:09.086Z,20.18
2018-07-29T06:06:09.054Z,20.09
2018-07-29T06:07:09.022Z,20.18
2018-07-29T06:08:08.989Z,20.19
2018-07-29T06:09:08.961Z,20.18
2018-07-29T06:10:08.929Z,20.19
2018-07-29T06:11:08.896Z,20.18
2018-07-29T06:12:08.868Z,20.22
2018-07-29T06:13:08.828Z,20.18
2018-07-29T06:14:08.803Z,20.18
2018-07-29T06:15:08.771Z,20.19
2018-07-29T06:16:08.735Z,20.29
2018-07-29T06:17:08.711Z,20.31
2018-07-29T06:18:08.675Z,20.39
2018-07-29T06:19:08.644Z,20.39
2018-07-29T06:20:08.609Z,20.41
2018-07-29T06:21:08.579Z,20.55
2018-07-29T06:22:08.547Z,20.44
2018-07-29T06:23:08.515Z,20.51
2018-07-29T06:24:08.486Z,20.52
2018-07-29T06:25:08.451Z,20.63
2018-07-29T06:26:08.481Z,20.63
2018-07-29T06:27:08.389Z,20.56
2018-07-29T06:28:08.356Z,20.56
2018-07-29T06:29:08.325Z,20.62
2018-07-29T06:30:08.294Z,20.60
2018-07-29T06:31:08.260Z,20.66
2018-07-29T06:32:08.231Z,20.65
2018-07-29T06:33:08.192Z,20.72
2018-07-29T06:34:08.163Z,20.72
2018-07-29T06:35:08.135Z,20.70
2018-07-29T06:36:08.104Z,20.72
2018-07-29T06:37:08.067Z,20.78
2018-07-29T06:38:08.040Z,20.82
2018-07-29T06:39:08.007Z,20.92
2018-07-29T06:40:07.973Z,20.99
2018-07-29T06:41:07.948Z,20.97
2018-07-29T06:42:07.918Z,20.99
2018-07-29T06:43:07.886Z,21.00
2018-07-29T06:44:07.852Z,21.17
2018-07-29T06:45:07.833Z,21.14
2018-07-29T06:46:07.785Z,21.29
2018-07-29T06:47:07.753Z,21.22
2018-07-29T06:48:07.721Z,21.22
2018-07-29T06:49:07.696Z,21.18
2018-07-29T06:50:07.662Z,21.32
2018-07-29T06:51:07.628Z,21.36
2018-07-29T06:52:07.595Z,21.27
2018-07-29T06:53:07.576Z,21.35
2018-07-29T06:54:07.536Z,21.21
2018-07-29T06:55:07.505Z,21.33
2018-07-29T06:56:07.476Z,21.35
2018-07-29T06:57:07.437Z,21.43
2018-07-29T06:58:07.409Z,21.45
2018-07-29T06:59:07.382Z,21.42
2018-07-29T07:00:07.355Z,21.48
2018-07-29T07:01:07.320Z,21.51
2018-07-29T07:02:07.285Z,21.39
2018-07-29T07:03:07.308Z,21.55
2018-07-29T07:04:07.229Z,21.57
2018-07-29T07:05:07.191Z,21.61
2018-07-29T07:06:07.160Z,21.72
2018-07-29T07:07:07.132Z,21.75
2018-07-29T07:08:07.103Z,21.73
2018-07-29T07:09:07.064Z,21.76
2018-07-29T07:10:07.037Z,21.69
2018-07-29T07:11:07.009Z,21.77
2018-07-29T07:12:06.972Z,21.82
2018-07-29T07:13:06.947Z,21.85
2018-07-29T07:14:06.914Z,21.82
2018-07-29T07:15:06.881Z,21.88
2018-07-29T07:16:06.905Z,21.83
2018-07-29T07:17:06.821Z,21.88
2018-07-29T07:18:06.866Z,21.96
2018-07-29T07:19:06.758Z,21.95
2018-07-29T07:20:06.724Z,21.95
2018-07-29T07:21:06.698Z,21.92
2018-07-29T07:22:06.669Z,21.92
2018-07-29T07:23:06.633Z,21.85
2018-07-29T07:24:06.601Z,21.92
2018-07-29T07:25:06.575Z,21.93
2018-07-29T07:26:06.571Z,21.92
2018-07-29T07:27:06.516Z,22.02
2018-07-29T07:28:06.484Z,21.98
2018-07-29T07:29:06.446Z,22.06
2018-07-29T07:30:06.422Z,21.99
2018-07-29T07:31:06.429Z,21.95
2018-07-29T07:32:06.355Z,21.98
2018-07-29T07:33:06.330Z,22.06
2018-07-29T07:34:06.295Z,22.17
2018-07-29T07:35:06.267Z,22.14
2018-07-29T07:36:06.239Z,22.07
2018-07-29T07:37:06.199Z,22.10
2018-07-29T07:38:06.170Z,22.22
2018-07-29T07:39:06.141Z,22.23
2018-07-29T07:40:06.112Z,22.20
2018-07-29T07:41:06.076Z,22.22
2018-07-29T07:42:06.048Z,22.14
2018-07-29T07:43:06.022Z,22.26
2018-07-29T07:44:05.985Z,22.20
2018-07-29T07:45:05.958Z,22.06
2018-07-29T07:46:05.965Z,22.17
2018-07-29T07:47:05.894Z,22.23
2018-07-29T07:48:05.868Z,22.22
2018-07-29T07:49:05.828Z,22.17
2018-07-29T07:50:05.800Z,22.17
2018-07-29T07:51:05.852Z,22.17
2018-07-29T07:52:05.737Z,22.23
2018-07-29T07:53:05.713Z,22.29
2018-07-29T07:54:05.683Z,22.30
2018-07-29T07:55:05.650Z,22.33
2018-07-29T07:56:05.617Z,22.33
2018-07-29T07:57:05.589Z,22.44
2018-07-29T07:58:05.558Z,22.43
2018-07-29T07:59:05.526Z,22.47
2018-07-29T08:00:05.497Z,22.41
2018-07-29T08:01:05.493Z,22.53
2018-07-29T08:02:05.438Z,22.50
2018-07-29T08:03:05.400Z,22.60
2018-07-29T08:04:05.370Z,22.57
2018-07-29T08:05:05.341Z,22.62
2018-07-29T08:06:05.310Z,22.66
2018-07-29T08:07:05.279Z,22.75
2018-07-29T08:08:05.256Z,22.68
2018-07-29T08:09:05.217Z,22.69
2018-07-29T08:10:05.188Z,22.80
2018-07-29T08:11:05.157Z,22.84
2018-07-29T08:12:05.132Z,22.94
2018-07-29T08:13:05.092Z,22.93
2018-07-29T08:14:05.066Z,22.96
2018-07-29T08:15:05.033Z,22.96
2018-07-29T08:16:05.020Z,23.06
2018-07-29T08:17:04.982Z,23.17
2018-07-29T08:18:04.943Z,23.15
2018-07-29T08:19:04.912Z,23.17
2018-07-29T08:20:04.889Z,23.20
2018-07-29T08:21:04.857Z,23.25
2018-07-29T08:22:04.821Z,23.31
2018-07-29T08:23:04.791Z,23.32
2018-07-29T08:24:04.760Z,23.28
2018-07-29T08:25:04.736Z,23.23
2018-07-29T08:26:04.700Z,23.34
2018-07-29T08:27:04.668Z,23.40
2018-07-29T08:28:04.689Z,23.34
2018-07-29T08:29:04.611Z,23.32
2018-07-29T08:30:04.582Z,23.44
2018-07-29T08:31:04.553Z,23.41
2018-07-29T08:32:04.521Z,23.46
2018-07-29T08:33:04.486Z,23.41
2018-07-29T08:34:04.458Z,23.41
2018-07-29T08:35:04.427Z,23.41
2018-07-29T08:36:04.396Z,23.36
2018-07-29T08:37:04.370Z,23.39
2018-07-29T08:38:04.340Z,23.37
2018-07-29T08:39:04.341Z,23.55
2018-07-29T08:40:04.286Z,23.58
2018-07-29T08:41:04.244Z,23.51
2018-07-29T08:42:04.220Z,23.54
2018-07-29T08:43:04.188Z,23.55
2018-07-29T08:44:04.161Z,23.55
2018-07-29T08:45:04.140Z,23.56
2018-07-29T08:46:04.098Z,23.71
2018-07-29T08:47:04.070Z,23.71
2018-07-29T08:48:04.036Z,23.77
2018-07-29T08:49:04.010Z,23.83
2018-07-29T08:50:03.982Z,23.93
2018-07-29T08:51:03.957Z,23.96
2018-07-29T08:52:03.921Z,24.01
2018-07-29T08:53:03.892Z,24.03
2018-07-29T08:54:03.858Z,24.02
2018-07-29T08:55:03.828Z,24.14
2018-07-29T08:56:03.796Z,24.14
2018-07-29T08:57:03.773Z,24.17
2018-07-29T08:58:03.743Z,24.13
2018-07-29T08:59:03.711Z,24.20
2018-07-29T09:00:03.692Z,24.24
2018-07-29T09:01:03.653Z,24.24
2018-07-29T09:02:03.621Z,24.24
2018-07-29T09:03:03.592Z,24.35
2018-07-29T09:04:03.654Z,24.29
2018-07-29T09:05:03.530Z,24.35
2018-07-29T09:06:03.502Z,24.36
2018-07-29T09:07:03.473Z,24.38
2018-07-29T09:08:03.441Z,24.33
2018-07-29T09:09:03.417Z,24.42
2018-07-29T09:10:03.388Z,24.40
2018-07-29T09:11:03.362Z,24.38
2018-07-29T09:12:03.335Z,24.42
2018-07-29T09:13:03.296Z,24.42
2018-07-29T09:14:03.270Z,24.39
2018-07-29T09:15:03.240Z,24.47
2018-07-29T09:16:03.213Z,24.45
2018-07-29T09:17:03.176Z,24.53
2018-07-29T09:18:03.148Z,24.53
2018-07-29T09:19:03.119Z,24.55
2018-07-29T09:20:03.089Z,24.60
2018-07-29T09:21:03.065Z,24.66
2018-07-29T09:22:03.039Z,24.63
2018-07-29T09:23:03.005Z,24.66
2018-07-29T09:24:02.977Z,24.58
2018-07-29T09:25:02.940Z,24.58
2018-07-29T09:26:02.913Z,24.76
2018-07-29T09:27:02.884Z,24.73
2018-07-29T09:28:02.855Z,24.73
2018-07-29T09:29:02.838Z,24.85
2018-07-29T09:30:02.804Z,24.85
2018-07-29T09:31:02.831Z,24.81
2018-07-29T09:32:02.736Z,24.85
2018-07-29T09:33:02.722Z,24.81
2018-07-29T09:34:02.689Z,24.95
2018-07-29T09:35:02.653Z,24.96
2018-07-29T09:36:02.630Z,24.99
2018-07-29T09:37:02.596Z,24.95
2018-07-29T09:38:02.567Z,25.01
2018-07-29T09:39:02.533Z,25.06
2018-07-29T09:40:02.543Z,24.95
2018-07-29T09:41:02.482Z,25.13
2018-07-29T09:42:02.459Z,25.08
2018-07-29T09:43:02.426Z,25.10
2018-07-29T09:44:02.393Z,25.11
2018-07-29T09:45:02.392Z,25.13
2018-07-29T09:46:02.331Z,25.18
2018-07-29T09:47:02.308Z,25.10
2018-07-29T09:48:02.288Z,25.10
2018-07-29T09:49:02.247Z,25.06
2018-07-29T09:50:02.223Z,25.06
2018-07-29T09:51:02.187Z,25.01
2018-07-29T09:52:02.159Z,24.85
2018-07-29T09:53:02.145Z,24.92
2018-07-29T09:54:02.107Z,24.93
2018-07-29T09:55:02.076Z,24.99
2018-07-29T09:56:02.047Z,25.06
2018-07-29T09:57:02.016Z,25.08
2018-07-29T09:58:01.996Z,25.04
2018-07-29T09:59:01.953Z,25.07
2018-07-29T10:00:01.931Z,25.06
2018-07-29T10:01:01.900Z,25.14
2018-07-29T10:02:01.872Z,25.11
2018-07-29T10:03:01.894Z,25.08
2018-07-29T10:04:01.813Z,25.03
2018-07-29T10:05:01.785Z,25.08
2018-07-29T10:06:01.758Z,25.14
2018-07-29T10:07:01.729Z,25.22
2018-07-29T10:20:58.986Z,25.22
2018-07-29T10:21:58.911Z,25.26
2018-07-29T10:22:58.876Z,25.21
2018-07-29T10:23:58.843Z,25.13
2018-07-29T10:24:58.810Z,25.17
2018-07-29T10:25:58.772Z,25.17
2018-07-29T10:26:58.739Z,25.17
2018-07-29T10:27:58.716Z,25.29
2018-07-29T10:28:58.687Z,25.26
2018-07-29T10:29:58.652Z,25.28
2018-07-29T10:30:58.620Z,25.28
2018-07-29T10:31:58.593Z,25.29
2018-07-29T10:32:58.562Z,25.32
2018-07-29T10:33:58.531Z,25.28
2018-07-29T10:34:58.502Z,25.29
2018-07-29T10:35:58.469Z,25.44
2018-07-29T10:36:58.438Z,25.36
2018-07-29T10:37:58.406Z,25.36
2018-07-29T10:38:58.376Z,25.46
2018-07-29T10:39:58.348Z,25.46
2018-07-29T10:40:58.328Z,25.40
2018-07-29T10:41:58.295Z,25.44
2018-07-29T10:42:58.265Z,25.36
2018-07-29T10:43:58.233Z,25.47
2018-07-29T10:44:58.251Z,25.48
2018-07-29T10:45:58.174Z,25.36
2018-07-29T10:46:58.249Z,25.29
2018-07-29T10:47:58.119Z,25.23
2018-07-29T10:48:58.087Z,25.22
2018-07-29T10:49:58.058Z,25.25
2018-07-29T10:50:58.028Z,25.18
2018-07-29T10:51:57.998Z,25.23
2018-07-29T10:52:58.027Z,25.23
2018-07-29T10:53:57.955Z,25.08
2018-07-29T10:54:57.924Z,25.17
2018-07-29T10:55:57.886Z,25.13
2018-07-29T10:56:57.925Z,25.13
2018-07-29T10:57:57.822Z,25.21
2018-07-29T10:58:57.798Z,25.11
2018-07-29T10:59:57.771Z,25.10
2018-07-29T11:00:57.740Z,25.14
2018-07-29T11:01:57.732Z,25.17
2018-07-29T11:02:57.685Z,25.08
2018-07-29T11:03:57.674Z,25.11
2018-07-29T11:04:57.653Z,25.07
2018-07-29T11:05:57.675Z,25.11
2018-07-29T11:06:57.572Z,24.99
2018-07-29T11:07:57.553Z,25.01
2018-07-29T11:08:57.510Z,24.96
2018-07-29T11:09:57.474Z,24.96
2018-07-29T11:10:57.447Z,25.01
2018-07-29T11:11:57.420Z,25.25
2018-07-29T11:12:57.432Z,25.16
2018-07-29T11:13:57.363Z,25.31
2018-07-29T11:14:57.342Z,25.25
2018-07-29T11:15:57.307Z,25.25
2018-07-29T11:16:57.274Z,25.33
2018-07-29T11:17:57.242Z,25.29
2018-07-29T11:18:57.219Z,25.26
2018-07-29T11:19:57.190Z,25.33
2018-07-29T11:20:57.209Z,25.40
2018-07-29T11:21:57.131Z,25.46
2018-07-29T11:22:57.104Z,25.55
2018-07-29T11:23:57.163Z,25.53
2018-07-29T11:24:57.048Z,25.48
2018-07-29T11:25:57.018Z,25.44
2018-07-29T11:26:56.990Z,25.32
2018-07-29T11:27:56.958Z,25.58
2018-07-29T11:28:56.928Z,25.48
2018-07-29T11:29:56.898Z,25.58
2018-07-29T11:30:56.869Z,25.60
2018-07-29T11:31:56.842Z,25.70
2018-07-29T11:32:56.816Z,25.59
2018-07-29T11:33:56.787Z,25.66
2018-07-29T11:34:56.758Z,25.80
2018-07-29T11:35:56.777Z,25.81
2018-07-29T11:36:56.707Z,25.83
2018-07-29T11:37:56.672Z,25.95
2018-07-29T11:38:56.644Z,25.95
2018-07-29T11:39:56.615Z,25.93
2018-07-29T11:40:57.115Z,25.98
2018-07-29T11:41:56.557Z,26.03
2018-07-29T11:42:57.148Z,26.03
2018-07-29T11:43:56.497Z,26.03
2018-07-29T11:44:56.473Z,26.09
2018-07-29T11:45:56.444Z,26.18
2018-07-29T11:46:56.421Z,26.25
2018-07-29T11:47:56.398Z,26.26
2018-07-29T11:48:56.355Z,26.26
2018-07-29T11:49:56.324Z,26.19
2018-07-29T11:50:56.302Z,26.25
2018-07-29T11:51:56.300Z,26.38
2018-07-29T11:52:56.249Z,26.48
2018-07-29T11:53:56.228Z,26.47
2018-07-29T11:54:56.183Z,26.45
2018-07-29T11:55:56.155Z,26.51
2018-07-29T11:56:56.131Z,26.51
2018-07-29T11:57:56.106Z,26.55
2018-07-29T11:58:56.082Z,26.48
2018-07-29T11:59:56.046Z,26.53
2018-07-29T12:00:56.017Z,26.51
2018-07-29T12:01:55.984Z,26.52
2018-07-29T12:02:56.004Z,26.51
2018-07-29T12:03:55.946Z,26.51
2018-07-29T12:04:55.904Z,26.60
2018-07-29T12:05:55.878Z,26.60
2018-07-29T12:06:55.843Z,26.63
2018-07-29T12:07:55.818Z,26.62
2018-07-29T12:08:55.795Z,26.58
2018-07-29T12:09:55.768Z,26.65
2018-07-29T12:10:55.738Z,26.65
2018-07-29T12:11:55.706Z,26.65
2018-07-29T12:12:55.861Z,26.66
2018-07-29T12:13:55.645Z,26.68
2018-07-29T12:14:55.621Z,26.71
2018-07-29T12:15:55.597Z,26.68
2018-07-29T12:16:55.567Z,26.68
2018-07-29T12:17:55.541Z,26.66
2018-07-29T12:18:55.512Z,26.66
2018-07-29T12:19:55.482Z,26.68
2018-07-29T12:20:55.455Z,26.74
2018-07-29T12:21:55.423Z,26.73
2018-07-29T12:22:55.401Z,26.80
2018-07-29T12:23:55.373Z,26.90
2018-07-29T12:24:55.342Z,26.97
2018-07-29T12:25:55.319Z,27.00
2018-07-29T12:26:55.284Z,27.17
2018-07-29T12:27:55.329Z,27.18
2018-07-29T12:28:55.233Z,27.29
2018-07-29T12:29:55.206Z,27.32
2018-07-29T12:30:55.177Z,27.35
2018-07-29T12:31:55.148Z,27.44
2018-07-29T12:32:55.117Z,27.47
2018-07-29T12:33:55.089Z,27.49
2018-07-29T12:34:55.059Z,27.63
2018-07-29T12:35:55.033Z,27.68
2018-07-29T12:36:55.012Z,27.78
2018-07-29T12:37:55.002Z,27.82
2018-07-29T12:38:54.949Z,27.86
2018-07-29T12:39:54.923Z,27.93
2018-07-29T12:40:54.897Z,27.83
2018-07-29T12:41:54.875Z,27.83
2018-07-29T12:42:54.846Z,27.86
2018-07-29T12:43:54.814Z,27.98
2018-07-29T12:44:54.790Z,28.05
2018-07-29T12:45:54.755Z,28.14
2018-07-29T12:46:54.728Z,28.25
2018-07-29T12:47:54.702Z,28.29
2018-07-29T12:48:54.701Z,28.30
2018-07-29T12:49:54.653Z,28.26
2018-07-29T12:50:54.630Z,28.23
2018-07-29T12:51:54.598Z,28.23
2018-07-29T12:52:54.565Z,28.20
2018-07-29T12:53:54.536Z,28.07
2018-07-29T12:54:54.515Z,28.15
2018-07-29T12:55:54.489Z,28.29
2018-07-29T12:56:54.482Z,28.30
2018-07-29T12:57:54.469Z,28.27
2018-07-29T12:58:54.400Z,28.30
2018-07-29T12:59:54.376Z,28.37
2018-07-29T13:00:54.352Z,28.35
2018-07-29T13:01:54.325Z,28.38
2018-07-29T13:02:54.292Z,28.30
2018-07-29T13:03:54.266Z,28.30
2018-07-29T13:04:54.243Z,28.30
2018-07-29T13:05:54.313Z,28.30
2018-07-29T13:06:54.191Z,28.32
2018-07-29T13:07:54.160Z,28.30
2018-07-29T13:08:54.132Z,28.23
2018-07-29T13:09:54.101Z,28.29
2018-07-29T13:10:54.082Z,28.19
2018-07-29T13:11:54.102Z,28.25
2018-07-29T13:12:54.024Z,28.19
2018-07-29T13:13:53.993Z,28.19
2018-07-29T13:14:53.968Z,28.27
2018-07-29T13:15:53.941Z,28.29
2018-07-29T13:16:53.917Z,28.30
2018-07-29T13:17:53.896Z,28.27
2018-07-29T13:18:53.869Z,28.15
2018-07-29T13:19:53.874Z,28.17
2018-07-29T13:20:53.809Z,28.23
2018-07-29T13:21:53.777Z,28.25